sensor_id;sensor_type;location;lat;lon;timestamp;P1;durP1;ratioP1;P2;durP2;ratioP2
10088;SDS011;51898;49.864;8.550;2023-04-12T00:02:16;3.27;;;2.63;;
10088;SDS011;51898;49.864;8.550;2023-04-12T00:05:18;5.40;;;2.10;;
10088;SDS011;51898;49.864;8.550;2023-04-12T00:08:23;3.30;;;2.20;;
10088;SDS011;51898;49.864;8.550;2023-04-12T00:11:24;4.00;;;2.70;;
10088;SDS011;51898;49.864;8.550;2023-04-12T00:14:27;5.60;;;2.43;;
10088;SDS011;51898;49.864;8.550;2023-04-12T00:17:29;4.70;;;2.37;;
10088;SDS011;51898;49.864;8.550;2023-04-12T00:20:31;3.63;;;1.90;;
10088;SDS011;51898;49.864;8.550;2023-04-12T00:23:32;3.10;;;2.20;;
10088;SDS011;51898;49.864;8.550;2023-04-12T00:26:34;3.97;;;2.20;;
10088;SDS011;51898;49.864;8.550;2023-04-12T00:29:36;3.30;;;2.57;;
10088;SDS011;51898;49.864;8.550;2023-04-12T00:32:37;7.90;;;3.03;;
10088;SDS011;51898;49.864;8.550;2023-04-12T00:35:39;6.43;;;3.13;;
10088;SDS011;51898;49.864;8.550;2023-04-12T00:38:41;5.87;;;2.80;;
10088;SDS011;51898;49.864;8.550;2023-04-12T00:41:43;6.80;;;2.40;;
10088;SDS011;51898;49.864;8.550;2023-04-12T00:44:44;5.50;;;2.80;;
10088;SDS011;51898;49.864;8.550;2023-04-12T00:47:46;5.60;;;2.27;;
10088;SDS011;51898;49.864;8.550;2023-04-12T00:50:48;4.30;;;3.07;;
10088;SDS011;51898;49.864;8.550;2023-04-12T00:53:51;6.33;;;3.00;;
10088;SDS011;51898;49.864;8.550;2023-04-12T00:56:58;8.00;;;2.80;;
10088;SDS011;51898;49.864;8.550;2023-04-12T01:00:01;9.33;;;3.27;;
10088;SDS011;51898;49.864;8.550;2023-04-12T01:03:05;6.57;;;3.10;;
10088;SDS011;51898;49.864;8.550;2023-04-12T01:12:41;7.77;;;3.63;;
10088;SDS011;51898;49.864;8.550;2023-04-12T01:15:58;5.27;;;3.50;;
10088;SDS011;51898;49.864;8.550;2023-04-12T01:19:20;10.50;;;3.33;;
10088;SDS011;51898;49.864;8.550;2023-04-12T01:22:57;7.57;;;3.70;;
10088;SDS011;51898;49.864;8.550;2023-04-12T01:26:35;5.97;;;3.70;;
10088;SDS011;51898;49.864;8.550;2023-04-12T01:29:44;7.67;;;3.80;;
10088;SDS011;51898;49.864;8.550;2023-04-12T01:32:50;4.70;;;3.37;;
10088;SDS011;51898;49.864;8.550;2023-04-12T01:35:53;12.80;;;3.73;;
10088;SDS011;51898;49.864;8.550;2023-04-12T01:38:55;8.30;;;4.13;;
10088;SDS011;51898;49.864;8.550;2023-04-12T01:41:57;6.83;;;3.30;;
10088;SDS011;51898;49.864;8.550;2023-04-12T01:45:00;11.30;;;4.13;;
10088;SDS011;51898;49.864;8.550;2023-04-12T01:48:03;8.30;;;3.40;;
10088;SDS011;51898;49.864;8.550;2023-04-12T01:51:09;7.73;;;3.60;;
10088;SDS011;51898;49.864;8.550;2023-04-12T01:54:22;13.47;;;3.80;;
10088;SDS011;51898;49.864;8.550;2023-04-12T01:57:27;10.50;;;4.30;;
10088;SDS011;51898;49.864;8.550;2023-04-12T02:00:29;8.20;;;3.93;;
10088;SDS011;51898;49.864;8.550;2023-04-12T02:03:32;8.03;;;3.83;;
10088;SDS011;51898;49.864;8.550;2023-04-12T02:06:34;5.60;;;3.50;;
10088;SDS011;51898;49.864;8.550;2023-04-12T02:09:38;7.47;;;4.40;;
10088;SDS011;51898;49.864;8.550;2023-04-12T02:12:40;8.10;;;3.60;;
10088;SDS011;51898;49.864;8.550;2023-04-12T02:15:42;8.40;;;4.00;;
10088;SDS011;51898;49.864;8.550;2023-04-12T02:18:44;6.80;;;4.00;;
10088;SDS011;51898;49.864;8.550;2023-04-12T02:21:47;9.00;;;3.50;;
10088;SDS011;51898;49.864;8.550;2023-04-12T02:24:50;8.60;;;3.40;;
10088;SDS011;51898;49.864;8.550;2023-04-12T02:27:52;10.90;;;4.17;;
10088;SDS011;51898;49.864;8.550;2023-04-12T02:30:53;6.10;;;3.80;;
10088;SDS011;51898;49.864;8.550;2023-04-12T02:33:55;9.50;;;3.80;;
10088;SDS011;51898;49.864;8.550;2023-04-12T02:36:57;10.70;;;4.40;;
10088;SDS011;51898;49.864;8.550;2023-04-12T02:39:59;8.47;;;3.93;;
10088;SDS011;51898;49.864;8.550;2023-04-12T02:43:02;9.40;;;4.10;;
10088;SDS011;51898;49.864;8.550;2023-04-12T02:46:04;10.47;;;3.80;;
10088;SDS011;51898;49.864;8.550;2023-04-12T02:49:06;7.73;;;3.77;;
10088;SDS011;51898;49.864;8.550;2023-04-12T02:52:08;6.97;;;3.63;;
10088;SDS011;51898;49.864;8.550;2023-04-12T02:55:09;8.10;;;3.60;;
10088;SDS011;51898;49.864;8.550;2023-04-12T02:58:11;11.43;;;3.23;;
10088;SDS011;51898;49.864;8.550;2023-04-12T03:01:13;7.50;;;3.70;;
10088;SDS011;51898;49.864;8.550;2023-04-12T03:04:15;5.67;;;3.07;;
10088;SDS011;51898;49.864;8.550;2023-04-12T03:07:17;6.50;;;3.37;;
10088;SDS011;51898;49.864;8.550;2023-04-12T03:10:20;6.07;;;3.20;;
10088;SDS011;51898;49.864;8.550;2023-04-12T03:13:22;7.93;;;3.60;;
10088;SDS011;51898;49.864;8.550;2023-04-12T03:16:24;9.30;;;3.70;;
10088;SDS011;51898;49.864;8.550;2023-04-12T03:19:30;7.80;;;4.33;;
10088;SDS011;51898;49.864;8.550;2023-04-12T03:22:33;10.97;;;4.03;;
10088;SDS011;51898;49.864;8.550;2023-04-12T03:25:34;6.80;;;3.67;;
10088;SDS011;51898;49.864;8.550;2023-04-12T03:28:37;8.90;;;4.57;;
10088;SDS011;51898;49.864;8.550;2023-04-12T03:31:38;8.67;;;4.37;;
10088;SDS011;51898;49.864;8.550;2023-04-12T03:34:40;9.53;;;3.70;;
10088;SDS011;51898;49.864;8.550;2023-04-12T03:37:42;6.30;;;3.63;;
10088;SDS011;51898;49.864;8.550;2023-04-12T03:40:44;5.30;;;3.43;;
10088;SDS011;51898;49.864;8.550;2023-04-12T03:43:45;11.60;;;5.60;;
10088;SDS011;51898;49.864;8.550;2023-04-12T03:46:47;8.87;;;5.13;;
10088;SDS011;51898;49.864;8.550;2023-04-12T03:49:49;7.23;;;4.70;;
10088;SDS011;51898;49.864;8.550;2023-04-12T03:53:10;9.87;;;4.93;;
10088;SDS011;51898;49.864;8.550;2023-04-12T03:56:12;12.00;;;4.70;;
10088;SDS011;51898;49.864;8.550;2023-04-12T03:59:14;9.80;;;3.90;;
10088;SDS011;51898;49.864;8.550;2023-04-12T04:02:15;5.57;;;3.50;;
10088;SDS011;51898;49.864;8.550;2023-04-12T04:05:18;5.53;;;3.60;;
10088;SDS011;51898;49.864;8.550;2023-04-12T04:08:20;4.90;;;2.63;;
10088;SDS011;51898;49.864;8.550;2023-04-12T04:11:22;7.43;;;3.77;;
10088;SDS011;51898;49.864;8.550;2023-04-12T04:14:25;9.97;;;2.73;;
10088;SDS011;51898;49.864;8.550;2023-04-12T04:17:27;5.53;;;3.10;;
10088;SDS011;51898;49.864;8.550;2023-04-12T04:20:29;7.47;;;3.30;;
10088;SDS011;51898;49.864;8.550;2023-04-12T04:23:32;3.73;;;2.43;;
10088;SDS011;51898;49.864;8.550;2023-04-12T04:26:40;6.00;;;3.00;;
10088;SDS011;51898;49.864;8.550;2023-04-12T04:29:41;3.23;;;2.43;;
10088;SDS011;51898;49.864;8.550;2023-04-12T04:32:45;6.60;;;2.73;;
10088;SDS011;51898;49.864;8.550;2023-04-12T04:35:48;3.70;;;2.00;;
10088;SDS011;51898;49.864;8.550;2023-04-12T04:38:50;8.47;;;2.33;;
10088;SDS011;51898;49.864;8.550;2023-04-12T04:41:52;3.10;;;2.30;;
10088;SDS011;51898;49.864;8.550;2023-04-12T04:44:55;4.27;;;2.23;;
10088;SDS011;51898;49.864;8.550;2023-04-12T04:48:03;5.00;;;2.10;;
10088;SDS011;51898;49.864;8.550;2023-04-12T04:51:05;6.00;;;2.00;;
10088;SDS011;51898;49.864;8.550;2023-04-12T04:54:07;2.43;;;1.90;;
10088;SDS011;51898;49.864;8.550;2023-04-12T04:57:09;3.73;;;2.00;;
10088;SDS011;51898;49.864;8.550;2023-04-12T05:00:11;4.50;;;2.07;;
10088;SDS011;51898;49.864;8.550;2023-04-12T05:03:14;3.93;;;2.10;;
10088;SDS011;51898;49.864;8.550;2023-04-12T05:06:16;5.00;;;2.20;;
10088;SDS011;51898;49.864;8.550;2023-04-12T05:09:17;7.70;;;2.83;;
10088;SDS011;51898;49.864;8.550;2023-04-12T05:12:22;2.53;;;1.93;;
10088;SDS011;51898;49.864;8.550;2023-04-12T05:15:24;5.63;;;2.53;;
10088;SDS011;51898;49.864;8.550;2023-04-12T05:18:26;2.83;;;2.20;;
10088;SDS011;51898;49.864;8.550;2023-04-12T05:21:27;5.10;;;2.27;;
10088;SDS011;51898;49.864;8.550;2023-04-12T05:24:29;4.90;;;2.40;;
10088;SDS011;51898;49.864;8.550;2023-04-12T05:27:30;3.30;;;2.73;;
10088;SDS011;51898;49.864;8.550;2023-04-12T05:30:32;5.20;;;2.50;;
10088;SDS011;51898;49.864;8.550;2023-04-12T05:33:34;3.57;;;2.20;;
10088;SDS011;51898;49.864;8.550;2023-04-12T05:36:36;6.03;;;2.43;;
10088;SDS011;51898;49.864;8.550;2023-04-12T05:39:38;2.67;;;1.87;;
10088;SDS011;51898;49.864;8.550;2023-04-12T05:42:40;6.47;;;2.47;;
10088;SDS011;51898;49.864;8.550;2023-04-12T05:45:42;2.80;;;1.80;;
10088;SDS011;51898;49.864;8.550;2023-04-12T05:48:43;3.77;;;2.63;;
10088;SDS011;51898;49.864;8.550;2023-04-12T05:51:48;3.50;;;2.17;;
10088;SDS011;51898;49.864;8.550;2023-04-12T05:54:51;2.90;;;1.93;;
10088;SDS011;51898;49.864;8.550;2023-04-12T05:57:52;2.33;;;2.10;;
10088;SDS011;51898;49.864;8.550;2023-04-12T06:00:55;2.53;;;2.07;;
10088;SDS011;51898;49.864;8.550;2023-04-12T06:03:57;4.17;;;2.73;;
10088;SDS011;51898;49.864;8.550;2023-04-12T06:06:59;2.60;;;1.67;;
10088;SDS011;51898;49.864;8.550;2023-04-12T06:10:02;3.60;;;2.17;;
10088;SDS011;51898;49.864;8.550;2023-04-12T06:13:03;2.10;;;1.70;;
10088;SDS011;51898;49.864;8.550;2023-04-12T06:16:05;4.30;;;2.03;;
10088;SDS011;51898;49.864;8.550;2023-04-12T06:19:07;2.93;;;1.70;;
10088;SDS011;51898;49.864;8.550;2023-04-12T06:22:11;1.83;;;1.43;;
10088;SDS011;51898;49.864;8.550;2023-04-12T06:25:12;3.80;;;1.77;;
10088;SDS011;51898;49.864;8.550;2023-04-12T06:28:14;2.73;;;1.73;;
10088;SDS011;51898;49.864;8.550;2023-04-12T06:31:16;2.93;;;1.53;;
10088;SDS011;51898;49.864;8.550;2023-04-12T06:34:18;2.93;;;1.40;;
10088;SDS011;51898;49.864;8.550;2023-04-12T06:37:20;2.50;;;1.50;;
10088;SDS011;51898;49.864;8.550;2023-04-12T06:40:22;2.57;;;1.70;;
10088;SDS011;51898;49.864;8.550;2023-04-12T06:43:23;1.63;;;1.53;;
10088;SDS011;51898;49.864;8.550;2023-04-12T06:46:25;3.00;;;1.50;;
10088;SDS011;51898;49.864;8.550;2023-04-12T06:49:28;1.77;;;1.50;;
10088;SDS011;51898;49.864;8.550;2023-04-12T06:52:30;3.40;;;2.47;;
10088;SDS011;51898;49.864;8.550;2023-04-12T06:55:31;2.77;;;1.87;;
10088;SDS011;51898;49.864;8.550;2023-04-12T06:58:33;4.03;;;2.40;;
10088;SDS011;51898;49.864;8.550;2023-04-12T07:01:35;2.33;;;1.67;;
10088;SDS011;51898;49.864;8.550;2023-04-12T07:04:36;2.73;;;1.73;;
10088;SDS011;51898;49.864;8.550;2023-04-12T07:07:38;4.53;;;1.90;;
10088;SDS011;51898;49.864;8.550;2023-04-12T07:10:40;3.40;;;1.93;;
10088;SDS011;51898;49.864;8.550;2023-04-12T07:13:41;3.93;;;1.77;;
10088;SDS011;51898;49.864;8.550;2023-04-12T07:16:43;2.23;;;1.70;;
10088;SDS011;51898;49.864;8.550;2023-04-12T07:19:45;2.03;;;1.80;;
10088;SDS011;51898;49.864;8.550;2023-04-12T07:22:47;2.57;;;2.37;;
10088;SDS011;51898;49.864;8.550;2023-04-12T07:25:48;3.53;;;1.90;;
10088;SDS011;51898;49.864;8.550;2023-04-12T07:28:50;5.23;;;2.30;;
10088;SDS011;51898;49.864;8.550;2023-04-12T07:31:52;4.73;;;2.10;;
10088;SDS011;51898;49.864;8.550;2023-04-12T07:34:53;2.30;;;1.80;;
10088;SDS011;51898;49.864;8.550;2023-04-12T07:37:55;3.30;;;1.97;;
10088;SDS011;51898;49.864;8.550;2023-04-12T07:40:57;2.07;;;1.50;;
10088;SDS011;51898;49.864;8.550;2023-04-12T07:43:59;3.00;;;2.10;;
10088;SDS011;51898;49.864;8.550;2023-04-12T07:47:00;3.33;;;1.90;;
10088;SDS011;51898;49.864;8.550;2023-04-12T07:50:02;2.30;;;1.93;;
10088;SDS011;51898;49.864;8.550;2023-04-12T07:53:17;2.43;;;2.20;;
10088;SDS011;51898;49.864;8.550;2023-04-12T07:56:26;3.67;;;1.70;;
10088;SDS011;51898;49.864;8.550;2023-04-12T07:59:28;2.30;;;2.10;;
10088;SDS011;51898;49.864;8.550;2023-04-12T08:02:31;2.73;;;1.90;;
10088;SDS011;51898;49.864;8.550;2023-04-12T08:05:33;5.30;;;2.30;;
10088;SDS011;51898;49.864;8.550;2023-04-12T08:08:35;6.80;;;3.50;;
10088;SDS011;51898;49.864;8.550;2023-04-12T08:11:37;3.30;;;2.57;;
10088;SDS011;51898;49.864;8.550;2023-04-12T08:14:39;3.87;;;1.97;;
10088;SDS011;51898;49.864;8.550;2023-04-12T08:17:41;2.83;;;2.20;;
10088;SDS011;51898;49.864;8.550;2023-04-12T08:20:44;4.73;;;2.47;;
10088;SDS011;51898;49.864;8.550;2023-04-12T08:23:48;3.27;;;2.57;;
10088;SDS011;51898;49.864;8.550;2023-04-12T08:26:51;5.10;;;3.63;;
10088;SDS011;51898;49.864;8.550;2023-04-12T08:29:53;2.30;;;2.10;;
10088;SDS011;51898;49.864;8.550;2023-04-12T08:32:54;2.97;;;2.43;;
10088;SDS011;51898;49.864;8.550;2023-04-12T08:35:57;2.37;;;2.00;;
10088;SDS011;51898;49.864;8.550;2023-04-12T08:38:59;2.80;;;2.37;;
10088;SDS011;51898;49.864;8.550;2023-04-12T08:42:02;4.00;;;3.03;;
10088;SDS011;51898;49.864;8.550;2023-04-12T08:45:08;3.63;;;2.40;;
10088;SDS011;51898;49.864;8.550;2023-04-12T08:48:11;6.17;;;2.27;;
10088;SDS011;51898;49.864;8.550;2023-04-12T08:51:15;4.87;;;1.90;;
10088;SDS011;51898;49.864;8.550;2023-04-12T08:54:18;3.90;;;2.20;;
10088;SDS011;51898;49.864;8.550;2023-04-12T08:57:20;3.90;;;2.40;;
10088;SDS011;51898;49.864;8.550;2023-04-12T09:00:22;4.30;;;2.37;;
10088;SDS011;51898;49.864;8.550;2023-04-12T09:03:24;4.37;;;2.60;;
10088;SDS011;51898;49.864;8.550;2023-04-12T09:06:26;3.60;;;2.60;;
10088;SDS011;51898;49.864;8.550;2023-04-12T09:09:44;4.83;;;2.60;;
10088;SDS011;51898;49.864;8.550;2023-04-12T09:12:46;4.10;;;2.80;;
10088;SDS011;51898;49.864;8.550;2023-04-12T09:15:51;2.20;;;2.00;;
10088;SDS011;51898;49.864;8.550;2023-04-12T09:18:52;5.83;;;2.80;;
10088;SDS011;51898;49.864;8.550;2023-04-12T09:21:55;4.93;;;2.73;;
10088;SDS011;51898;49.864;8.550;2023-04-12T09:24:57;5.20;;;2.63;;
10088;SDS011;51898;49.864;8.550;2023-04-12T09:27:58;4.43;;;2.70;;
10088;SDS011;51898;49.864;8.550;2023-04-12T09:31:00;3.70;;;2.73;;
10088;SDS011;51898;49.864;8.550;2023-04-12T09:34:05;6.10;;;2.73;;
10088;SDS011;51898;49.864;8.550;2023-04-12T09:37:17;2.73;;;2.40;;
10088;SDS011;51898;49.864;8.550;2023-04-12T09:40:22;9.53;;;3.37;;
10088;SDS011;51898;49.864;8.550;2023-04-12T09:43:37;5.50;;;2.73;;
10088;SDS011;51898;49.864;8.550;2023-04-12T09:46:48;5.67;;;3.70;;
10088;SDS011;51898;49.864;8.550;2023-04-12T09:49:52;3.90;;;3.07;;
10088;SDS011;51898;49.864;8.550;2023-04-12T09:52:56;4.90;;;3.27;;
10088;SDS011;51898;49.864;8.550;2023-04-12T09:55:58;6.20;;;3.80;;
10088;SDS011;51898;49.864;8.550;2023-04-12T09:59:04;4.80;;;2.97;;
10088;SDS011;51898;49.864;8.550;2023-04-12T10:02:12;3.50;;;2.83;;
10088;SDS011;51898;49.864;8.550;2023-04-12T10:05:19;8.40;;;3.37;;
10088;SDS011;51898;49.864;8.550;2023-04-12T10:08:23;7.77;;;4.10;;
10088;SDS011;51898;49.864;8.550;2023-04-12T10:11:26;7.20;;;4.00;;
10088;SDS011;51898;49.864;8.550;2023-04-12T10:14:28;4.00;;;3.17;;
10088;SDS011;51898;49.864;8.550;2023-04-12T10:17:31;4.13;;;3.37;;
10088;SDS011;51898;49.864;8.550;2023-04-12T10:20:35;5.50;;;3.70;;
10088;SDS011;51898;49.864;8.550;2023-04-12T10:23:42;4.87;;;3.80;;
10088;SDS011;51898;49.864;8.550;2023-04-12T10:26:45;5.23;;;3.30;;
10088;SDS011;51898;49.864;8.550;2023-04-12T10:29:50;7.23;;;4.00;;
10088;SDS011;51898;49.864;8.550;2023-04-12T10:36:02;7.20;;;3.50;;
10088;SDS011;51898;49.864;8.550;2023-04-12T10:39:08;5.87;;;3.80;;
10088;SDS011;51898;49.864;8.550;2023-04-12T10:42:14;8.27;;;3.90;;
10088;SDS011;51898;49.864;8.550;2023-04-12T10:48:34;7.87;;;4.23;;
10088;SDS011;51898;49.864;8.550;2023-04-12T10:55:26;11.30;;;4.33;;
10088;SDS011;51898;49.864;8.550;2023-04-12T11:02:11;5.40;;;3.73;;
10088;SDS011;51898;49.864;8.550;2023-04-12T11:05:13;4.57;;;3.10;;
10088;SDS011;51898;49.864;8.550;2023-04-12T11:08:19;4.03;;;3.60;;
10088;SDS011;51898;49.864;8.550;2023-04-12T11:11:20;5.70;;;3.17;;
10088;SDS011;51898;49.864;8.550;2023-04-12T11:14:35;5.80;;;3.73;;
10088;SDS011;51898;49.864;8.550;2023-04-12T11:17:38;6.90;;;3.97;;
10088;SDS011;51898;49.864;8.550;2023-04-12T11:20:40;6.20;;;4.03;;
10088;SDS011;51898;49.864;8.550;2023-04-12T11:23:42;6.67;;;4.60;;
10088;SDS011;51898;49.864;8.550;2023-04-12T11:26:43;5.83;;;3.90;;
10088;SDS011;51898;49.864;8.550;2023-04-12T11:29:47;7.30;;;4.20;;
10088;SDS011;51898;49.864;8.550;2023-04-12T11:32:54;5.70;;;3.27;;
10088;SDS011;51898;49.864;8.550;2023-04-12T11:35:56;8.57;;;4.07;;
10088;SDS011;51898;49.864;8.550;2023-04-12T11:38:57;5.20;;;4.17;;
10088;SDS011;51898;49.864;8.550;2023-04-12T11:42:00;6.03;;;3.90;;
10088;SDS011;51898;49.864;8.550;2023-04-12T11:45:03;8.40;;;4.70;;
10088;SDS011;51898;49.864;8.550;2023-04-12T11:48:17;9.00;;;4.70;;
10088;SDS011;51898;49.864;8.550;2023-04-12T11:51:20;7.50;;;4.37;;
10088;SDS011;51898;49.864;8.550;2023-04-12T11:54:26;8.10;;;4.07;;
10088;SDS011;51898;49.864;8.550;2023-04-12T11:57:29;7.03;;;4.80;;
10088;SDS011;51898;49.864;8.550;2023-04-12T12:00:31;7.20;;;4.40;;
10088;SDS011;51898;49.864;8.550;2023-04-12T12:03:33;5.90;;;4.47;;
10088;SDS011;51898;49.864;8.550;2023-04-12T12:06:35;6.23;;;4.10;;
10088;SDS011;51898;49.864;8.550;2023-04-12T12:09:37;5.33;;;3.47;;
10088;SDS011;51898;49.864;8.550;2023-04-12T12:12:43;8.30;;;4.60;;
10088;SDS011;51898;49.864;8.550;2023-04-12T12:15:45;5.70;;;3.80;;
10088;SDS011;51898;49.864;8.550;2023-04-12T12:18:47;6.70;;;4.70;;
10088;SDS011;51898;49.864;8.550;2023-04-12T12:21:53;7.23;;;3.83;;
10088;SDS011;51898;49.864;8.550;2023-04-12T12:24:55;5.97;;;4.07;;
10088;SDS011;51898;49.864;8.550;2023-04-12T12:28:00;5.43;;;3.80;;
10088;SDS011;51898;49.864;8.550;2023-04-12T12:31:06;4.87;;;4.20;;
10088;SDS011;51898;49.864;8.550;2023-04-12T12:34:12;5.20;;;4.40;;
10088;SDS011;51898;49.864;8.550;2023-04-12T12:37:14;4.93;;;4.30;;
10088;SDS011;51898;49.864;8.550;2023-04-12T12:40:29;5.80;;;4.53;;
10088;SDS011;51898;49.864;8.550;2023-04-12T12:43:33;6.63;;;5.10;;
10088;SDS011;51898;49.864;8.550;2023-04-12T12:46:34;6.73;;;4.90;;
10088;SDS011;51898;49.864;8.550;2023-04-12T12:49:54;5.10;;;3.90;;
10088;SDS011;51898;49.864;8.550;2023-04-12T12:52:56;6.77;;;4.77;;
10088;SDS011;51898;49.864;8.550;2023-04-12T12:55:58;6.27;;;4.23;;
10088;SDS011;51898;49.864;8.550;2023-04-12T12:58:59;6.40;;;4.63;;
10088;SDS011;51898;49.864;8.550;2023-04-12T13:02:01;4.80;;;4.00;;
10088;SDS011;51898;49.864;8.550;2023-04-12T13:05:03;6.83;;;4.47;;
10088;SDS011;51898;49.864;8.550;2023-04-12T13:08:08;5.83;;;3.67;;
10088;SDS011;51898;49.864;8.550;2023-04-12T13:11:09;6.80;;;3.77;;
10088;SDS011;51898;49.864;8.550;2023-04-12T13:14:11;4.60;;;3.80;;
10088;SDS011;51898;49.864;8.550;2023-04-12T13:17:13;9.40;;;4.20;;
10088;SDS011;51898;49.864;8.550;2023-04-12T13:20:15;7.80;;;4.40;;
10088;SDS011;51898;49.864;8.550;2023-04-12T13:23:17;8.33;;;4.57;;
10088;SDS011;51898;49.864;8.550;2023-04-12T13:26:19;7.80;;;5.80;;
10088;SDS011;51898;49.864;8.550;2023-04-12T13:29:20;13.43;;;5.60;;
10088;SDS011;51898;49.864;8.550;2023-04-12T13:32:22;6.50;;;4.83;;
10088;SDS011;51898;49.864;8.550;2023-04-12T13:35:24;6.37;;;5.17;;
10088;SDS011;51898;49.864;8.550;2023-04-12T13:38:25;9.13;;;4.50;;
10088;SDS011;51898;49.864;8.550;2023-04-12T13:41:27;5.53;;;3.57;;
10088;SDS011;51898;49.864;8.550;2023-04-12T13:44:31;5.83;;;3.53;;
10088;SDS011;51898;49.864;8.550;2023-04-12T13:47:32;7.23;;;3.83;;
10088;SDS011;51898;49.864;8.550;2023-04-12T13:50:35;4.30;;;3.63;;
10088;SDS011;51898;49.864;8.550;2023-04-12T13:53:37;5.90;;;4.60;;
10088;SDS011;51898;49.864;8.550;2023-04-12T13:56:38;6.57;;;4.57;;
10088;SDS011;51898;49.864;8.550;2023-04-12T13:59:40;11.07;;;5.87;;
10088;SDS011;51898;49.864;8.550;2023-04-12T14:02:41;10.03;;;6.00;;
10088;SDS011;51898;49.864;8.550;2023-04-12T14:05:43;6.40;;;5.23;;
10088;SDS011;51898;49.864;8.550;2023-04-12T14:08:45;5.73;;;4.50;;
10088;SDS011;51898;49.864;8.550;2023-04-12T14:11:48;6.80;;;4.23;;
10088;SDS011;51898;49.864;8.550;2023-04-12T14:14:50;3.47;;;3.17;;
10088;SDS011;51898;49.864;8.550;2023-04-12T14:17:51;5.03;;;3.33;;
10088;SDS011;51898;49.864;8.550;2023-04-12T14:20:53;2.97;;;2.70;;
10088;SDS011;51898;49.864;8.550;2023-04-12T14:23:55;3.30;;;2.40;;
10088;SDS011;51898;49.864;8.550;2023-04-12T14:26:57;2.50;;;2.13;;
10088;SDS011;51898;49.864;8.550;2023-04-12T14:30:00;2.70;;;1.97;;
10088;SDS011;51898;49.864;8.550;2023-04-12T14:33:03;1.97;;;1.70;;
10088;SDS011;51898;49.864;8.550;2023-04-12T14:36:04;2.50;;;2.07;;
10088;SDS011;51898;49.864;8.550;2023-04-12T14:39:06;1.97;;;1.30;;
10088;SDS011;51898;49.864;8.550;2023-04-12T14:42:12;3.73;;;1.50;;
10088;SDS011;51898;49.864;8.550;2023-04-12T14:45:13;1.80;;;1.07;;
10088;SDS011;51898;49.864;8.550;2023-04-12T14:48:15;1.30;;;1.20;;
10088;SDS011;51898;49.864;8.550;2023-04-12T14:51:17;1.83;;;1.00;;
10088;SDS011;51898;49.864;8.550;2023-04-12T14:54:19;1.80;;;1.30;;
10088;SDS011;51898;49.864;8.550;2023-04-12T14:57:21;0.80;;;0.80;;
10088;SDS011;51898;49.864;8.550;2023-04-12T15:00:23;0.90;;;0.80;;
10088;SDS011;51898;49.864;8.550;2023-04-12T15:03:24;0.83;;;0.83;;
10088;SDS011;51898;49.864;8.550;2023-04-12T15:06:27;0.70;;;0.70;;
10088;SDS011;51898;49.864;8.550;2023-04-12T15:09:33;1.20;;;1.10;;
10088;SDS011;51898;49.864;8.550;2023-04-12T15:12:35;2.93;;;1.00;;
10088;SDS011;51898;49.864;8.550;2023-04-12T15:15:37;1.00;;;0.90;;
10088;SDS011;51898;49.864;8.550;2023-04-12T15:18:39;1.33;;;0.97;;
10088;SDS011;51898;49.864;8.550;2023-04-12T15:21:42;1.53;;;1.10;;
10088;SDS011;51898;49.864;8.550;2023-04-12T15:24:43;1.10;;;1.00;;
10088;SDS011;51898;49.864;8.550;2023-04-12T15:27:45;1.90;;;1.00;;
10088;SDS011;51898;49.864;8.550;2023-04-12T15:30:47;1.00;;;0.90;;
10088;SDS011;51898;49.864;8.550;2023-04-12T15:33:49;1.00;;;0.80;;
10088;SDS011;51898;49.864;8.550;2023-04-12T15:36:51;1.50;;;1.10;;
10088;SDS011;51898;49.864;8.550;2023-04-12T15:39:53;1.20;;;1.10;;
10088;SDS011;51898;49.864;8.550;2023-04-12T15:42:55;1.10;;;1.00;;
10088;SDS011;51898;49.864;8.550;2023-04-12T15:45:56;1.30;;;1.00;;
10088;SDS011;51898;49.864;8.550;2023-04-12T15:48:59;0.80;;;0.80;;
10088;SDS011;51898;49.864;8.550;2023-04-12T15:52:01;1.00;;;0.90;;
10088;SDS011;51898;49.864;8.550;2023-04-12T15:55:03;1.10;;;0.90;;
10088;SDS011;51898;49.864;8.550;2023-04-12T15:58:05;0.80;;;0.80;;
10088;SDS011;51898;49.864;8.550;2023-04-12T16:01:08;1.30;;;1.10;;
10088;SDS011;51898;49.864;8.550;2023-04-12T16:04:10;2.50;;;0.80;;
10088;SDS011;51898;49.864;8.550;2023-04-12T16:07:12;1.47;;;0.87;;
10088;SDS011;51898;49.864;8.550;2023-04-12T16:10:15;1.30;;;1.20;;
10088;SDS011;51898;49.864;8.550;2023-04-12T16:13:21;1.27;;;0.83;;
10088;SDS011;51898;49.864;8.550;2023-04-12T16:16:22;4.20;;;0.97;;
10088;SDS011;51898;49.864;8.550;2023-04-12T16:19:24;0.80;;;0.70;;
10088;SDS011;51898;49.864;8.550;2023-04-12T16:22:26;0.80;;;0.70;;
10088;SDS011;51898;49.864;8.550;2023-04-12T16:25:27;1.00;;;0.90;;
10088;SDS011;51898;49.864;8.550;2023-04-12T16:28:29;0.90;;;0.80;;
10088;SDS011;51898;49.864;8.550;2023-04-12T16:31:31;0.70;;;0.63;;
10088;SDS011;51898;49.864;8.550;2023-04-12T16:34:33;0.90;;;0.80;;
10088;SDS011;51898;49.864;8.550;2023-04-12T16:37:35;1.33;;;0.70;;
10088;SDS011;51898;49.864;8.550;2023-04-12T16:40:38;0.90;;;0.60;;
10088;SDS011;51898;49.864;8.550;2023-04-12T16:43:39;0.80;;;0.80;;
10088;SDS011;51898;49.864;8.550;2023-04-12T16:46:45;1.03;;;0.90;;
10088;SDS011;51898;49.864;8.550;2023-04-12T16:49:48;1.00;;;1.00;;
10088;SDS011;51898;49.864;8.550;2023-04-12T16:52:49;1.40;;;1.30;;
10088;SDS011;51898;49.864;8.550;2023-04-12T16:55:51;1.60;;;1.50;;
10088;SDS011;51898;49.864;8.550;2023-04-12T16:58:53;1.80;;;1.70;;
10088;SDS011;51898;49.864;8.550;2023-04-12T17:01:55;2.10;;;2.00;;
10088;SDS011;51898;49.864;8.550;2023-04-12T17:05:00;2.00;;;1.90;;
10088;SDS011;51898;49.864;8.550;2023-04-12T17:08:04;2.20;;;2.00;;
10088;SDS011;51898;49.864;8.550;2023-04-12T17:11:07;2.27;;;2.03;;
10088;SDS011;51898;49.864;8.550;2023-04-12T17:14:08;2.00;;;1.90;;
10088;SDS011;51898;49.864;8.550;2023-04-12T17:17:11;2.60;;;2.00;;
10088;SDS011;51898;49.864;8.550;2023-04-12T17:20:17;2.00;;;1.90;;
10088;SDS011;51898;49.864;8.550;2023-04-12T17:23:20;2.10;;;2.00;;
10088;SDS011;51898;49.864;8.550;2023-04-12T17:26:22;2.40;;;2.20;;
10088;SDS011;51898;49.864;8.550;2023-04-12T17:29:26;2.20;;;2.10;;
10088;SDS011;51898;49.864;8.550;2023-04-12T17:32:28;2.30;;;2.20;;
10088;SDS011;51898;49.864;8.550;2023-04-12T17:35:29;3.13;;;1.60;;
10088;SDS011;51898;49.864;8.550;2023-04-12T17:38:31;1.83;;;1.70;;
10088;SDS011;51898;49.864;8.550;2023-04-12T17:41:33;2.17;;;1.97;;
10088;SDS011;51898;49.864;8.550;2023-04-12T17:44:34;2.33;;;1.77;;
10088;SDS011;51898;49.864;8.550;2023-04-12T17:47:36;2.10;;;2.00;;
10088;SDS011;51898;49.864;8.550;2023-04-12T17:50:39;2.03;;;1.70;;
10088;SDS011;51898;49.864;8.550;2023-04-12T17:53:41;1.83;;;1.50;;
10088;SDS011;51898;49.864;8.550;2023-04-12T17:56:43;2.00;;;1.80;;
10088;SDS011;51898;49.864;8.550;2023-04-12T17:59:45;1.47;;;1.37;;
10088;SDS011;51898;49.864;8.550;2023-04-12T18:02:47;1.67;;;1.57;;
10088;SDS011;51898;49.864;8.550;2023-04-12T18:05:50;2.20;;;1.30;;
10088;SDS011;51898;49.864;8.550;2023-04-12T18:08:53;1.20;;;1.10;;
10088;SDS011;51898;49.864;8.550;2023-04-12T18:11:55;1.10;;;1.00;;
10088;SDS011;51898;49.864;8.550;2023-04-12T18:14:57;1.10;;;1.00;;
10088;SDS011;51898;49.864;8.550;2023-04-12T18:17:59;1.13;;;1.00;;
10088;SDS011;51898;49.864;8.550;2023-04-12T18:21:04;2.23;;;1.30;;
10088;SDS011;51898;49.864;8.550;2023-04-12T18:24:06;1.40;;;1.30;;
10088;SDS011;51898;49.864;8.550;2023-04-12T18:27:08;1.63;;;1.00;;
10088;SDS011;51898;49.864;8.550;2023-04-12T18:30:09;1.10;;;1.00;;
10088;SDS011;51898;49.864;8.550;2023-04-12T18:33:11;2.57;;;1.27;;
10088;SDS011;51898;49.864;8.550;2023-04-12T18:36:13;1.20;;;1.10;;
10088;SDS011;51898;49.864;8.550;2023-04-12T18:39:15;3.00;;;1.20;;
10088;SDS011;51898;49.864;8.550;2023-04-12T18:42:16;1.20;;;1.10;;
10088;SDS011;51898;49.864;8.550;2023-04-12T18:45:18;1.20;;;1.10;;